Terminal Aerodrome Forecast
Issued by NWS Charleston, WV

Current Version | Previous Version | Text Only | Print | Product List | Glossary On
Versions: 1 2 3 4 5 6 7 8 9 10 11 12 13 14 15 16 17 18 19 20
000
FTUS41 KRLX 242300
TAFHTS
TAF
KHTS 242320Z 2500/2524 25011G18KT P6SM SCT045
     FM250300 26011KT P6SM SCT040
     FM251100 22004KT P6SM FEW120
     FM251800 25011KT P6SM SCT040
     FM252200 25005KT P6SM SCT200=

USA.gov is the U.S. government's official web portal to all federal, state and local government web resources and services.